sensor_id;sensor_type;location;lat;lon;timestamp;pressure;altitude;pressure_sealevel;temperature;humidity
20027;BME280;10174;42.688;23.344;2023-08-12T00:01:23;95877.44;;;17.27;76.12
20027;BME280;10174;42.688;23.344;2023-08-12T00:03:50;95878.69;;;17.35;76.00
20027;BME280;10174;42.688;23.344;2023-08-12T00:06:15;95848.31;;;17.08;75.89
20027;BME280;10174;42.688;23.344;2023-08-12T00:08:41;95770.72;;;16.64;75.90
20027;BME280;10174;42.688;23.344;2023-08-12T00:11:06;95823.81;;;16.95;76.27
20027;BME280;10174;42.688;23.344;2023-08-12T00:13:31;95890.47;;;17.25;76.08
20027;BME280;10174;42.688;23.344;2023-08-12T00:15:57;95874.56;;;17.18;76.33
20027;BME280;10174;42.688;23.344;2023-08-12T00:18:22;95853.47;;;17.10;76.57
20027;BME280;10174;42.688;23.344;2023-08-12T00:20:48;95871.59;;;17.15;76.17
20027;BME280;10174;42.688;23.344;2023-08-12T00:23:13;95867.72;;;17.21;76.17
20027;BME280;10174;42.688;23.344;2023-08-12T00:25:39;95847.91;;;17.01;76.07
20027;BME280;10174;42.688;23.344;2023-08-12T00:28:04;95864.84;;;17.12;75.53
20027;BME280;10174;42.688;23.344;2023-08-12T00:30:30;95787.81;;;16.65;75.57
20027;BME280;10174;42.688;23.344;2023-08-12T00:32:55;95855.38;;;17.09;75.44
20027;BME280;10174;42.688;23.344;2023-08-12T00:35:20;95856.19;;;17.10;75.80
20027;BME280;10174;42.688;23.344;2023-08-12T00:37:46;95866.44;;;17.13;75.10
20027;BME280;10174;42.688;23.344;2023-08-12T00:40:12;95840.03;;;17.00;75.21
20027;BME280;10174;42.688;23.344;2023-08-12T00:42:38;95842.22;;;16.98;75.52
20027;BME280;10174;42.688;23.344;2023-08-12T00:45:07;95768.47;;;16.47;75.09
20027;BME280;10174;42.688;23.344;2023-08-12T00:47:34;95824.81;;;16.80;75.13
20027;BME280;10174;42.688;23.344;2023-08-12T00:49:59;95764.22;;;16.41;75.26
20027;BME280;10174;42.688;23.344;2023-08-12T00:52:25;95766.34;;;16.44;75.25
20027;BME280;10174;42.688;23.344;2023-08-12T00:54:51;95842.63;;;16.86;75.22
20027;BME280;10174;42.688;23.344;2023-08-12T00:57:16;95816.25;;;16.67;75.79
20027;BME280;10174;42.688;23.344;2023-08-12T00:59:44;95846.63;;;16.94;75.37
20027;BME280;10174;42.688;23.344;2023-08-12T01:02:11;95823.50;;;16.72;75.09
20027;BME280;10174;42.688;23.344;2023-08-12T01:04:37;95802.16;;;16.65;76.31
20027;BME280;10174;42.688;23.344;2023-08-12T01:07:02;95828.81;;;16.82;75.71
20027;BME280;10174;42.688;23.344;2023-08-12T01:09:28;95851.47;;;16.97;77.21
20027;BME280;10174;42.688;23.344;2023-08-12T01:12:08;95860.72;;;16.96;78.19
20027;BME280;10174;42.688;23.344;2023-08-12T01:17:29;95846.03;;;16.72;78.95
20027;BME280;10174;42.688;23.344;2023-08-12T01:19:55;95836.84;;;16.68;79.12
20027;BME280;10174;42.688;23.344;2023-08-12T01:22:22;95806.44;;;16.47;77.25
20027;BME280;10174;42.688;23.344;2023-08-12T01:24:48;95846.63;;;16.69;78.06
20027;BME280;10174;42.688;23.344;2023-08-12T01:27:16;95855.56;;;16.70;77.12
20027;BME280;10174;42.688;23.344;2023-08-12T01:29:46;95823.66;;;16.62;79.43
20027;BME280;10174;42.688;23.344;2023-08-12T01:32:40;95848.78;;;16.67;79.03
20027;BME280;10174;42.688;23.344;2023-08-12T01:35:11;95841.09;;;16.55;77.48
20027;BME280;10174;42.688;23.344;2023-08-12T01:37:42;95830.56;;;16.49;78.62
20027;BME280;10174;42.688;23.344;2023-08-12T01:40:09;95835.66;;;16.55;77.69
20027;BME280;10174;42.688;23.344;2023-08-12T01:42:36;95834.69;;;16.46;76.49
20027;BME280;10174;42.688;23.344;2023-08-12T01:45:04;95763.50;;;16.06;75.89
20027;BME280;10174;42.688;23.344;2023-08-12T01:47:29;95830.81;;;16.52;75.99
20027;BME280;10174;42.688;23.344;2023-08-12T01:49:55;95828.59;;;16.54;78.14
20027;BME280;10174;42.688;23.344;2023-08-12T01:52:21;95844.09;;;16.54;79.00
20027;BME280;10174;42.688;23.344;2023-08-12T01:54:47;95839.53;;;16.49;79.57
20027;BME280;10174;42.688;23.344;2023-08-12T01:57:12;95843.38;;;16.43;79.76
20027;BME280;10174;42.688;23.344;2023-08-12T01:59:38;95831.00;;;16.32;80.66
20027;BME280;10174;42.688;23.344;2023-08-12T02:02:04;95857.56;;;16.35;81.64
20027;BME280;10174;42.688;23.344;2023-08-12T02:04:30;95832.25;;;16.15;81.55
20027;BME280;10174;42.688;23.344;2023-08-12T02:06:55;95854.41;;;16.23;82.03
20027;BME280;10174;42.688;23.344;2023-08-12T02:09:21;95839.09;;;16.08;82.40
20027;BME280;10174;42.688;23.344;2023-08-12T02:11:48;95822.66;;;15.99;82.51
20027;BME280;10174;42.688;23.344;2023-08-12T02:14:13;95816.78;;;15.92;82.61
20027;BME280;10174;42.688;23.344;2023-08-12T02:16:39;95804.66;;;15.79;82.56
20027;BME280;10174;42.688;23.344;2023-08-12T02:19:04;95835.09;;;16.05;82.35
20027;BME280;10174;42.688;23.344;2023-08-12T02:21:29;95819.41;;;15.97;82.42
20027;BME280;10174;42.688;23.344;2023-08-12T02:23:55;95846.38;;;16.12;82.77
20027;BME280;10174;42.688;23.344;2023-08-12T02:26:20;95831.88;;;15.98;82.79
20027;BME280;10174;42.688;23.344;2023-08-12T02:28:46;95826.09;;;15.80;82.85
20027;BME280;10174;42.688;23.344;2023-08-12T02:31:11;95854.06;;;16.05;82.79
20027;BME280;10174;42.688;23.344;2023-08-12T02:33:36;95834.38;;;15.89;83.63
20027;BME280;10174;42.688;23.344;2023-08-12T02:36:02;95858.19;;;15.97;83.39
20027;BME280;10174;42.688;23.344;2023-08-12T02:38:27;95849.22;;;15.97;83.00
20027;BME280;10174;42.688;23.344;2023-08-12T02:40:53;95841.66;;;15.94;82.71
20027;BME280;10174;42.688;23.344;2023-08-12T02:43:18;95850.91;;;15.93;82.99
20027;BME280;10174;42.688;23.344;2023-08-12T02:45:44;95834.78;;;15.72;83.42
20027;BME280;10174;42.688;23.344;2023-08-12T02:48:10;95850.25;;;15.66;84.01
20027;BME280;10174;42.688;23.344;2023-08-12T02:50:35;95851.38;;;15.60;84.37
20027;BME280;10174;42.688;23.344;2023-08-12T02:53:01;95861.63;;;15.63;84.50
20027;BME280;10174;42.688;23.344;2023-08-12T02:55:26;95859.25;;;15.57;85.26
20027;BME280;10174;42.688;23.344;2023-08-12T02:57:52;95857.69;;;15.50;85.31
20027;BME280;10174;42.688;23.344;2023-08-12T03:00:17;95858.56;;;15.41;85.62
20027;BME280;10174;42.688;23.344;2023-08-12T03:02:43;95771.97;;;14.91;85.57
20027;BME280;10174;42.688;23.344;2023-08-12T03:05:09;95859.88;;;15.43;85.90
20027;BME280;10174;42.688;23.344;2023-08-12T03:07:34;95874.78;;;15.46;86.35
20027;BME280;10174;42.688;23.344;2023-08-12T03:10:00;95856.72;;;15.31;86.44
20027;BME280;10174;42.688;23.344;2023-08-12T03:12:25;95839.44;;;15.22;86.09
20027;BME280;10174;42.688;23.344;2023-08-12T03:14:50;95874.53;;;15.42;86.12
20027;BME280;10174;42.688;23.344;2023-08-12T03:17:16;95764.78;;;14.71;85.89
20027;BME280;10174;42.688;23.344;2023-08-12T03:19:41;95862.13;;;15.31;85.99
20027;BME280;10174;42.688;23.344;2023-08-12T03:22:07;95872.66;;;15.32;86.03
20027;BME280;10174;42.688;23.344;2023-08-12T03:24:32;95861.66;;;15.19;86.36
20027;BME280;10174;42.688;23.344;2023-08-12T03:26:58;95848.16;;;15.08;86.71
20027;BME280;10174;42.688;23.344;2023-08-12T03:29:24;95857.88;;;15.14;86.60
20027;BME280;10174;42.688;23.344;2023-08-12T03:31:49;95871.91;;;15.22;86.60
20027;BME280;10174;42.688;23.344;2023-08-12T03:34:14;95877.84;;;15.24;87.02
20027;BME280;10174;42.688;23.344;2023-08-12T03:36:40;95836.03;;;15.01;87.28
20027;BME280;10174;42.688;23.344;2023-08-12T03:39:06;95860.56;;;15.20;87.81
20027;BME280;10174;42.688;23.344;2023-08-12T03:41:32;95866.53;;;15.17;87.19
20027;BME280;10174;42.688;23.344;2023-08-12T03:43:57;95789.16;;;14.55;87.35
20027;BME280;10174;42.688;23.344;2023-08-12T03:46:23;95885.50;;;15.11;87.75
20027;BME280;10174;42.688;23.344;2023-08-12T03:48:48;95871.75;;;14.98;88.27
20027;BME280;10174;42.688;23.344;2023-08-12T03:51:13;95853.41;;;14.84;87.96
20027;BME280;10174;42.688;23.344;2023-08-12T03:53:39;95789.50;;;14.38;88.56
20027;BME280;10174;42.688;23.344;2023-08-12T03:56:04;95886.63;;;15.00;88.30
20027;BME280;10174;42.688;23.344;2023-08-12T03:58:30;95883.94;;;15.00;88.81
20027;BME280;10174;42.688;23.344;2023-08-12T04:00:55;95895.28;;;15.02;88.65
20027;BME280;10174;42.688;23.344;2023-08-12T04:03:21;95888.25;;;15.06;88.88
20027;BME280;10174;42.688;23.344;2023-08-12T04:05:50;95898.97;;;15.22;88.45
20027;BME280;10174;42.688;23.344;2023-08-12T04:08:19;95854.75;;;14.92;88.51
20027;BME280;10174;42.688;23.344;2023-08-12T04:10:48;95818.84;;;14.76;88.72
20027;BME280;10174;42.688;23.344;2023-08-12T04:13:14;95841.25;;;14.92;88.66
20027;BME280;10174;42.688;23.344;2023-08-12T04:15:40;95803.44;;;14.71;88.47
20027;BME280;10174;42.688;23.344;2023-08-12T04:18:06;95887.59;;;15.25;88.60
20027;BME280;10174;42.688;23.344;2023-08-12T04:20:32;95895.16;;;15.28;87.88
20027;BME280;10174;42.688;23.344;2023-08-12T04:22:57;95890.81;;;15.32;87.01
20027;BME280;10174;42.688;23.344;2023-08-12T04:25:23;95892.97;;;15.35;86.11
20027;BME280;10174;42.688;23.344;2023-08-12T04:27:49;95882.16;;;15.30;86.51
20027;BME280;10174;42.688;23.344;2023-08-12T04:30:16;95851.91;;;15.18;86.37
20027;BME280;10174;42.688;23.344;2023-08-12T04:32:41;95882.38;;;15.39;85.86
20027;BME280;10174;42.688;23.344;2023-08-12T04:35:07;95775.56;;;14.76;85.47
20027;BME280;10174;42.688;23.344;2023-08-12T04:37:33;95876.41;;;15.42;85.25
20027;BME280;10174;42.688;23.344;2023-08-12T04:39:59;95896.94;;;15.53;85.19
20027;BME280;10174;42.688;23.344;2023-08-12T04:42:24;95894.47;;;15.57;84.99
20027;BME280;10174;42.688;23.344;2023-08-12T04:44:50;95879.38;;;15.45;84.43
20027;BME280;10174;42.688;23.344;2023-08-12T04:47:15;95902.03;;;15.60;84.12
20027;BME280;10174;42.688;23.344;2023-08-12T04:49:41;95903.09;;;15.59;84.26
20027;BME280;10174;42.688;23.344;2023-08-12T04:52:06;95897.16;;;15.57;83.82
20027;BME280;10174;42.688;23.344;2023-08-12T04:54:32;95900.41;;;15.59;83.91
20027;BME280;10174;42.688;23.344;2023-08-12T04:56:57;95831.09;;;15.18;83.41
20027;BME280;10174;42.688;23.344;2023-08-12T04:59:24;95881.50;;;15.54;83.35
20027;BME280;10174;42.688;23.344;2023-08-12T05:01:49;95876.88;;;15.54;82.99
20027;BME280;10174;42.688;23.344;2023-08-12T05:04:15;95903.09;;;15.64;82.70
20027;BME280;10174;42.688;23.344;2023-08-12T05:06:40;95851.81;;;15.38;82.67
20027;BME280;10174;42.688;23.344;2023-08-12T05:09:05;95905.16;;;15.82;82.27
20027;BME280;10174;42.688;23.344;2023-08-12T05:11:31;95904.03;;;15.89;81.63
20027;BME280;10174;42.688;23.344;2023-08-12T05:13:56;95795.53;;;15.30;81.32
20027;BME280;10174;42.688;23.344;2023-08-12T05:16:22;95916.81;;;16.17;80.56
20027;BME280;10174;42.688;23.344;2023-08-12T05:18:47;95870.25;;;16.10;80.01
20027;BME280;10174;42.688;23.344;2023-08-12T05:21:12;95904.47;;;16.35;79.34
20027;BME280;10174;42.688;23.344;2023-08-12T05:23:38;95899.22;;;16.44;77.83
20027;BME280;10174;42.688;23.344;2023-08-12T05:26:03;95906.97;;;16.56;77.57
20027;BME280;10174;42.688;23.344;2023-08-12T05:28:29;95911.03;;;16.59;77.03
20027;BME280;10174;42.688;23.344;2023-08-12T05:30:54;95781.63;;;15.81;76.73
20027;BME280;10174;42.688;23.344;2023-08-12T05:33:21;95912.78;;;16.44;77.92
20027;BME280;10174;42.688;23.344;2023-08-12T05:35:47;95899.63;;;16.32;77.24
20027;BME280;10174;42.688;23.344;2023-08-12T05:38:13;95895.84;;;16.28;78.12
20027;BME280;10174;42.688;23.344;2023-08-12T05:40:38;95907.47;;;16.34;78.49
20027;BME280;10174;42.688;23.344;2023-08-12T05:43:04;95886.72;;;16.19;79.08
20027;BME280;10174;42.688;23.344;2023-08-12T05:45:29;95915.47;;;16.44;78.88
20027;BME280;10174;42.688;23.344;2023-08-12T05:47:55;95812.50;;;15.85;78.32
20027;BME280;10174;42.688;23.344;2023-08-12T05:50:21;95903.50;;;16.50;77.86
20027;BME280;10174;42.688;23.344;2023-08-12T05:52:46;95819.03;;;16.09;78.22
20027;BME280;10174;42.688;23.344;2023-08-12T05:55:11;95894.63;;;16.45;76.80
20027;BME280;10174;42.688;23.344;2023-08-12T05:57:37;95875.44;;;16.36;76.92
20027;BME280;10174;42.688;23.344;2023-08-12T06:00:02;95908.72;;;16.71;77.50
20027;BME280;10174;42.688;23.344;2023-08-12T06:02:28;95879.97;;;16.70;76.43
20027;BME280;10174;42.688;23.344;2023-08-12T06:04:53;95893.13;;;16.82;75.78
20027;BME280;10174;42.688;23.344;2023-08-12T06:07:19;95866.22;;;16.85;75.20
20027;BME280;10174;42.688;23.344;2023-08-12T06:09:44;95780.47;;;16.41;74.79
20027;BME280;10174;42.688;23.344;2023-08-12T06:12:09;95893.47;;;17.23;74.30
20027;BME280;10174;42.688;23.344;2023-08-12T06:14:37;95803.69;;;16.77;74.00
20027;BME280;10174;42.688;23.344;2023-08-12T06:17:03;95880.28;;;17.36;72.78
20027;BME280;10174;42.688;23.344;2023-08-12T06:19:29;95869.06;;;17.42;72.35
20027;BME280;10174;42.688;23.344;2023-08-12T06:21:54;95852.63;;;17.34;72.34
20027;BME280;10174;42.688;23.344;2023-08-12T06:24:19;95881.31;;;17.40;72.35
20027;BME280;10174;42.688;23.344;2023-08-12T06:26:45;95851.28;;;17.31;72.08
20027;BME280;10174;42.688;23.344;2023-08-12T06:29:10;95904.72;;;17.74;71.83
20027;BME280;10174;42.688;23.344;2023-08-12T06:31:35;95849.59;;;17.54;71.07
20027;BME280;10174;42.688;23.344;2023-08-12T06:34:01;95871.69;;;17.86;71.07
20027;BME280;10174;42.688;23.344;2023-08-12T06:36:26;95868.03;;;17.76;71.47
20027;BME280;10174;42.688;23.344;2023-08-12T06:38:52;95877.63;;;18.07;70.73
20027;BME280;10174;42.688;23.344;2023-08-12T06:41:17;95874.16;;;18.20;70.13
20027;BME280;10174;42.688;23.344;2023-08-12T06:43:42;95873.63;;;18.18;69.10
20027;BME280;10174;42.688;23.344;2023-08-12T06:46:08;95849.59;;;18.25;68.26
20027;BME280;10174;42.688;23.344;2023-08-12T06:48:34;95800.50;;;18.03;67.91
20027;BME280;10174;42.688;23.344;2023-08-12T06:50:59;95876.16;;;18.75;67.17
20027;BME280;10174;42.688;23.344;2023-08-12T06:53:26;95864.47;;;18.89;67.51
20027;BME280;10174;42.688;23.344;2023-08-12T06:55:51;95872.75;;;18.97;67.15
20027;BME280;10174;42.688;23.344;2023-08-12T06:58:16;95853.50;;;18.94;66.78
20027;BME280;10174;42.688;23.344;2023-08-12T07:00:42;95871.13;;;19.10;66.12
20027;BME280;10174;42.688;23.344;2023-08-12T07:03:08;95811.84;;;18.65;66.03
20027;BME280;10174;42.688;23.344;2023-08-12T07:05:33;95855.00;;;19.00;66.41
20027;BME280;10174;42.688;23.344;2023-08-12T07:07:58;95845.81;;;19.10;65.15
20027;BME280;10174;42.688;23.344;2023-08-12T07:10:24;95866.44;;;19.38;64.58
20027;BME280;10174;42.688;23.344;2023-08-12T07:12:49;95859.81;;;19.31;64.09
20027;BME280;10174;42.688;23.344;2023-08-12T07:15:15;95817.50;;;18.97;63.87
20027;BME280;10174;42.688;23.344;2023-08-12T07:17:40;95837.44;;;19.20;62.98
20027;BME280;10174;42.688;23.344;2023-08-12T07:20:06;95804.38;;;19.13;63.43
20027;BME280;10174;42.688;23.344;2023-08-12T07:22:32;95768.88;;;19.18;62.64
20027;BME280;10174;42.688;23.344;2023-08-12T07:24:57;95858.41;;;20.38;61.42
20027;BME280;10174;42.688;23.344;2023-08-12T07:27:28;95854.28;;;20.49;60.21
20027;BME280;10174;42.688;23.344;2023-08-12T07:29:53;95856.69;;;20.51;60.05
20027;BME280;10174;42.688;23.344;2023-08-12T07:32:19;95851.63;;;20.35;59.74
20027;BME280;10174;42.688;23.344;2023-08-12T07:34:44;95850.91;;;20.43;60.07
20027;BME280;10174;42.688;23.344;2023-08-12T07:37:10;95857.84;;;20.58;60.58
20027;BME280;10174;42.688;23.344;2023-08-12T07:39:36;95762.19;;;20.15;60.05
20027;BME280;10174;42.688;23.344;2023-08-12T07:42:01;95827.28;;;20.70;59.91
20027;BME280;10174;42.688;23.344;2023-08-12T07:44:26;95839.91;;;21.06;57.12
20027;BME280;10174;42.688;23.344;2023-08-12T07:46:52;95842.53;;;21.29;57.30
20027;BME280;10174;42.688;23.344;2023-08-12T07:49:17;95812.94;;;21.22;55.70
20027;BME280;10174;42.688;23.344;2023-08-12T07:51:42;95837.88;;;21.47;54.52
20027;BME280;10174;42.688;23.344;2023-08-12T07:54:08;95814.22;;;21.07;54.01
20027;BME280;10174;42.688;23.344;2023-08-12T07:56:33;95825.47;;;21.14;55.37
20027;BME280;10174;42.688;23.344;2023-08-12T07:58:58;95837.41;;;21.27;55.01
20027;BME280;10174;42.688;23.344;2023-08-12T08:01:24;95807.84;;;21.38;55.08
20027;BME280;10174;42.688;23.344;2023-08-12T08:03:49;95803.38;;;21.60;56.70
20027;BME280;10174;42.688;23.344;2023-08-12T08:06:14;95800.75;;;21.89;53.70
20027;BME280;10174;42.688;23.344;2023-08-12T08:08:40;95814.56;;;22.02;53.08
20027;BME280;10174;42.688;23.344;2023-08-12T08:11:05;95821.66;;;22.20;54.05
20027;BME280;10174;42.688;23.344;2023-08-12T08:13:31;95808.91;;;22.72;53.24
20027;BME280;10174;42.688;23.344;2023-08-12T08:15:56;95808.97;;;22.93;50.38
20027;BME280;10174;42.688;23.344;2023-08-12T08:18:22;95785.31;;;22.58;50.78
20027;BME280;10174;42.688;23.344;2023-08-12T08:20:47;95811.97;;;22.79;50.43
20027;BME280;10174;42.688;23.344;2023-08-12T08:23:13;95829.03;;;22.76;49.50
20027;BME280;10174;42.688;23.344;2023-08-12T08:25:38;95824.03;;;22.78;50.35
20027;BME280;10174;42.688;23.344;2023-08-12T08:28:04;95721.97;;;22.30;50.14
20027;BME280;10174;42.688;23.344;2023-08-12T08:30:29;95736.38;;;22.57;49.68
20027;BME280;10174;42.688;23.344;2023-08-12T08:32:55;95726.78;;;22.72;48.47
20027;BME280;10174;42.688;23.344;2023-08-12T08:35:20;95798.66;;;23.71;47.19
20027;BME280;10174;42.688;23.344;2023-08-12T08:37:45;95715.97;;;24.51;44.72
20027;BME280;10174;42.688;23.344;2023-08-12T08:40:11;95799.03;;;27.28;39.92
20027;BME280;10174;42.688;23.344;2023-08-12T08:42:37;95732.75;;;28.91;36.11
20027;BME280;10174;42.688;23.344;2023-08-12T08:45:06;95791.88;;;29.63;35.58
20027;BME280;10174;42.688;23.344;2023-08-12T08:47:35;95734.97;;;29.36;34.55
20027;BME280;10174;42.688;23.344;2023-08-12T08:50:01;95729.50;;;28.86;34.16
20027;BME280;10174;42.688;23.344;2023-08-12T08:52:28;95716.13;;;30.13;32.31
20027;BME280;10174;42.688;23.344;2023-08-12T08:54:53;95768.06;;;29.86;32.79
20027;BME280;10174;42.688;23.344;2023-08-12T08:57:19;95808.88;;;30.67;32.72
20027;BME280;10174;42.688;23.344;2023-08-12T08:59:45;95797.66;;;30.15;32.58
20027;BME280;10174;42.688;23.344;2023-08-12T09:02:16;95792.09;;;30.12;33.24
20027;BME280;10174;42.688;23.344;2023-08-12T09:04:43;95778.72;;;30.21;33.45
20027;BME280;10174;42.688;23.344;2023-08-12T09:07:10;95768.09;;;31.16;31.64
20027;BME280;10174;42.688;23.344;2023-08-12T09:09:36;95776.03;;;31.88;30.66
20027;BME280;10174;42.688;23.344;2023-08-12T09:12:04;95782.97;;;31.53;31.10
20027;BME280;10174;42.688;23.344;2023-08-12T09:14:31;95768.91;;;31.94;31.26
20027;BME280;10174;42.688;23.344;2023-08-12T09:16:57;95777.41;;;34.48;26.67
20027;BME280;10174;42.688;23.344;2023-08-12T09:19:22;95782.00;;;36.32;25.12
20027;BME280;10174;42.688;23.344;2023-08-12T09:21:54;95762.50;;;34.73;25.98
20027;BME280;10174;42.688;23.344;2023-08-12T09:24:26;95773.84;;;32.58;29.17
20027;BME280;10174;42.688;23.344;2023-08-12T09:26:53;95745.22;;;32.32;29.56
20027;BME280;10174;42.688;23.344;2023-08-12T09:29:23;95766.72;;;33.33;28.16
20027;BME280;10174;42.688;23.344;2023-08-12T09:31:49;95728.31;;;33.95;27.43
20027;BME280;10174;42.688;23.344;2023-08-12T09:34:17;95741.16;;;33.70;27.81
20027;BME280;10174;42.688;23.344;2023-08-12T09:36:42;95754.00;;;33.21;28.73
20027;BME280;10174;42.688;23.344;2023-08-12T09:39:08;95721.44;;;32.85;28.54
20027;BME280;10174;42.688;23.344;2023-08-12T09:41:34;95717.72;;;33.64;28.17
20027;BME280;10174;42.688;23.344;2023-08-12T09:44:01;95731.31;;;32.22;28.79
20027;BME280;10174;42.688;23.344;2023-08-12T09:46:28;95750.06;;;32.82;28.74
20027;BME280;10174;42.688;23.344;2023-08-12T09:48:53;95747.47;;;31.91;30.27
20027;BME280;10174;42.688;23.344;2023-08-12T09:51:19;95664.09;;;30.85;30.42
20027;BME280;10174;42.688;23.344;2023-08-12T09:53:48;95733.34;;;32.50;29.87
20027;BME280;10174;42.688;23.344;2023-08-12T09:56:22;95688.06;;;32.57;27.65
20027;BME280;10174;42.688;23.344;2023-08-12T09:58:49;95723.41;;;33.07;28.12
20027;BME280;10174;42.688;23.344;2023-08-12T10:01:18;95725.38;;;34.83;25.21
20027;BME280;10174;42.688;23.344;2023-08-12T10:03:48;95722.78;;;35.07;25.54
20027;BME280;10174;42.688;23.344;2023-08-12T10:06:15;95687.25;;;35.49;25.28
20027;BME280;10174;42.688;23.344;2023-08-12T10:08:41;95686.16;;;34.52;26.16
20027;BME280;10174;42.688;23.344;2023-08-12T10:11:06;95708.47;;;34.52;26.64
20027;BME280;10174;42.688;23.344;2023-08-12T10:13:33;95719.63;;;34.56;27.04
20027;BME280;10174;42.688;23.344;2023-08-12T10:16:00;95653.75;;;33.46;26.92
20027;BME280;10174;42.688;23.344;2023-08-12T10:18:28;95697.19;;;35.12;25.91
20027;BME280;10174;42.688;23.344;2023-08-12T10:20:57;95689.13;;;34.23;26.66
20027;BME280;10174;42.688;23.344;2023-08-12T10:23:24;95697.88;;;34.29;27.58
20027;BME280;10174;42.688;23.344;2023-08-12T10:25:53;95653.88;;;34.55;26.11
20027;BME280;10174;42.688;23.344;2023-08-12T10:28:19;95695.94;;;35.20;25.58
20027;BME280;10174;42.688;23.344;2023-08-12T10:30:45;95702.13;;;34.48;26.68
20027;BME280;10174;42.688;23.344;2023-08-12T10:33:11;95665.63;;;33.50;27.23
20027;BME280;10174;42.688;23.344;2023-08-12T10:35:46;95626.72;;;34.14;26.17
20027;BME280;10174;42.688;23.344;2023-08-12T10:38:19;95695.47;;;34.31;26.95
20027;BME280;10174;42.688;23.344;2023-08-12T10:40:45;95684.47;;;35.49;24.26
20027;BME280;10174;42.688;23.344;2023-08-12T10:43:12;95608.47;;;34.96;25.15
20027;BME280;10174;42.688;23.344;2023-08-12T10:50:34;95675.38;;;32.27;27.47
20027;BME280;10174;42.688;23.344;2023-08-12T10:53:26;95677.34;;;33.98;25.66
20027;BME280;10174;42.688;23.344;2023-08-12T10:55:59;95679.13;;;35.24;25.04
20027;BME280;10174;42.688;23.344;2023-08-12T10:58:33;95669.81;;;35.38;25.36
20027;BME280;10174;42.688;23.344;2023-08-12T11:00:59;95665.06;;;35.65;25.09
20027;BME280;10174;42.688;23.344;2023-08-12T11:03:25;95670.19;;;36.32;22.97
20027;BME280;10174;42.688;23.344;2023-08-12T11:05:52;95669.56;;;34.87;25.11
20027;BME280;10174;42.688;23.344;2023-08-12T11:08:24;95670.75;;;34.37;24.56
20027;BME280;10174;42.688;23.344;2023-08-12T11:10:52;95656.38;;;35.25;23.74
20027;BME280;10174;42.688;23.344;2023-08-12T11:13:19;95654.72;;;33.88;25.31
20027;BME280;10174;42.688;23.344;2023-08-12T11:15:44;95626.34;;;34.08;25.54
20027;BME280;10174;42.688;23.344;2023-08-12T11:18:16;95566.41;;;34.38;25.29
20027;BME280;10174;42.688;23.344;2023-08-12T11:20:42;95639.72;;;34.35;25.86
20027;BME280;10174;42.688;23.344;2023-08-12T11:23:08;95666.88;;;30.85;28.98
20027;BME280;10174;42.688;23.344;2023-08-12T11:25:36;95642.78;;;28.98;30.71
20027;BME280;10174;42.688;23.344;2023-08-12T11:28:01;95641.03;;;29.12;31.48
20027;BME280;10174;42.688;23.344;2023-08-12T11:30:27;95572.88;;;29.27;30.33
20027;BME280;10174;42.688;23.344;2023-08-12T11:32:54;95648.97;;;29.48;29.43
20027;BME280;10174;42.688;23.344;2023-08-12T11:35:22;95621.59;;;28.52;30.94
20027;BME280;10174;42.688;23.344;2023-08-12T11:37:51;95651.56;;;28.50;32.28
20027;BME280;10174;42.688;23.344;2023-08-12T11:40:18;95645.13;;;28.19;33.01
20027;BME280;10174;42.688;23.344;2023-08-12T11:42:48;95549.50;;;28.34;30.43
20027;BME280;10174;42.688;23.344;2023-08-12T11:45:16;95560.78;;;29.09;29.81
20027;BME280;10174;42.688;23.344;2023-08-12T11:47:42;95640.06;;;29.65;29.93
20027;BME280;10174;42.688;23.344;2023-08-12T11:50:10;95634.66;;;29.39;28.98
20027;BME280;10174;42.688;23.344;2023-08-12T11:52:37;95639.53;;;29.53;30.02
20027;BME280;10174;42.688;23.344;2023-08-12T11:55:03;95633.91;;;29.79;29.35
20027;BME280;10174;42.688;23.344;2023-08-12T11:57:29;95609.97;;;29.98;29.66
20027;BME280;10174;42.688;23.344;2023-08-12T12:00:05;95579.63;;;29.71;28.71
20027;BME280;10174;42.688;23.344;2023-08-12T12:02:39;95610.88;;;30.13;30.05
20027;BME280;10174;42.688;23.344;2023-08-12T12:05:10;95584.13;;;30.31;28.83
20027;BME280;10174;42.688;23.344;2023-08-12T12:07:36;95588.72;;;30.13;29.36
20027;BME280;10174;42.688;23.344;2023-08-12T12:10:02;95602.06;;;29.62;30.16
20027;BME280;10174;42.688;23.344;2023-08-12T12:12:27;95635.28;;;29.25;30.16
20027;BME280;10174;42.688;23.344;2023-08-12T12:14:53;95545.16;;;28.59;31.14
20027;BME280;10174;42.688;23.344;2023-08-12T12:17:23;95615.88;;;28.91;32.01
20027;BME280;10174;42.688;23.344;2023-08-12T12:19:54;95619.13;;;28.70;31.80
20027;BME280;10174;42.688;23.344;2023-08-12T12:22:20;95616.84;;;28.52;32.68
20027;BME280;10174;42.688;23.344;2023-08-12T12:24:46;95619.19;;;28.00;33.01
20027;BME280;10174;42.688;23.344;2023-08-12T12:27:13;95621.59;;;27.59;33.94
20027;BME280;10174;42.688;23.344;2023-08-12T12:29:38;95620.66;;;27.71;35.26
20027;BME280;10174;42.688;23.344;2023-08-12T12:32:04;95528.81;;;27.28;34.65
20027;BME280;10174;42.688;23.344;2023-08-12T12:34:29;95597.94;;;27.35;33.85
20027;BME280;10174;42.688;23.344;2023-08-12T12:36:55;95626.91;;;27.48;34.93
20027;BME280;10174;42.688;23.344;2023-08-12T12:39:20;95618.81;;;27.36;34.12
20027;BME280;10174;42.688;23.344;2023-08-12T12:41:48;95617.78;;;27.25;34.57
20027;BME280;10174;42.688;23.344;2023-08-12T12:44:13;95611.53;;;27.28;35.81
20027;BME280;10174;42.688;23.344;2023-08-12T12:46:39;95577.88;;;27.18;35.79
20027;BME280;10174;42.688;23.344;2023-08-12T12:49:04;95608.06;;;27.31;35.06
20027;BME280;10174;42.688;23.344;2023-08-12T12:51:29;95611.53;;;27.28;34.47
20027;BME280;10174;42.688;23.344;2023-08-12T12:53:55;95608.56;;;26.97;35.36